Latest Coastal Weather Observations for Kiama

IDN60701

Issued at 10:51 am EST Friday 14 August 2020 (issued every 10 minutes, with the page automatically refreshed every 10 minutes)

About coastal observations | Map of coastal stations | Coastal observations for NSW | Marine services | Other Formats
Station Details ID: 068242 Name: KIAMA (BOMBO HEADLAND) Lat: -34.65 Lon: 150.86 Height: 15.5 m
Data from the previous 72 hours. | See also: Recent months at Kiama
Date/Time
EST
Wind Sea
Height
m
Swell Vis
km
Cloud Weather Temp
°C
Press
hPa
Rain since
9am
mm
Dir  Spd
kts
Gust
kts
Height
m
Period
s
Dir
14/10:30am N 2 3 - - - - - - - 18.8 - 0.0
14/10:00am N 2 3 - - - - - - - 17.9 - 0.0
14/09:30am CALM 0 0 - - - - - - - 18.0 - 0.0
14/09:00am CALM 0 0 - - - - - - - 16.3 - 0.0
14/08:30am WNW 1 3 - - - - - - - 15.9 - 0.0
14/08:00am CALM 0 1 - - - - - - - 15.5 - 0.0
14/07:30am W 2 3 - - - - - - - 14.1 - 0.0
14/07:00am W 7 8 - - - - - - - 12.5 - 0.0
14/06:30am WSW 2 3 - - - - - - - 11.7 - 0.0
14/06:00am WSW 6 6 - - - - - - - 11.7 - 0.0
14/05:30am W 5 6 - - - - - - - 12.3 - 0.0
14/05:00am W 4 5 - - - - - - - 11.8 - 0.0
14/04:30am CALM 0 0 - - - - - - - 12.0 - 0.0
14/04:00am SSW 2 3 - - - - - - - 11.7 - 0.0
14/03:30am WSW 3 4 - - - - - - - 13.3 - 0.0
14/03:00am WSW 5 6 - - - - - - - 13.0 - 0.0
14/02:30am WSW 6 7 - - - - - - - 12.6 - 0.0
14/02:00am W 4 5 - - - - - - - 13.6 - 0.0
14/01:30am W 5 6 - - - - - - - 13.6 - 0.0
14/01:00am W 7 8 - - - - - - - 13.2 - 0.0
14/12:30am W 7 8 - - - - - - - 12.9 - 0.0
14/12:00am W 6 7 - - - - - - - 12.9 - 0.0
 
Date/Time
EST
Wind Sea
Height
m
Swell Vis
km
Cloud Weather Temp
°C
Press
hPa
Rain since
9am
mm
Dir  Spd
kts
Gust
kts
Height
m
Period
s
Dir
13/11:30pm W 5 5 - - - - - - - 14.2 - 0.0
13/11:00pm W 5 5 - - - - - - - 13.7 - 0.0
13/10:30pm W 6 7 - - - - - - - 13.2 - 0.0
13/10:00pm W 6 6 - - - - - - - 13.1 - 0.0
13/09:30pm W 6 7 - - - - - - - 12.9 - 0.0
13/09:00pm WSW 3 6 - - - - - - - 13.3 - 0.0
13/08:30pm CALM 0 0 - - - - - - - 13.9 - 0.0
13/08:00pm CALM 0 1 - - - - - - - 14.1 - 0.0
13/07:30pm SSW 1 2 - - - - - - - 14.2 - 0.0
13/07:00pm CALM 0 0 - - - - - - - 14.9 - 0.0
13/06:30pm SSE 2 3 - - - - - - - 15.4 - 0.0
13/06:00pm SE 3 5 - - - - - - - 15.8 - 0.0
13/05:30pm SE 3 4 - - - - - - - 16.5 - 0.0
13/05:00pm S 4 8 - - - - - - - 18.4 - 0.0
13/04:30pm WSW 6 10 - - - - - - - 20.3 - 0.0
13/04:00pm SW 7 11 - - - - - - - 20.7 - 0.0
13/03:30pm W 8 11 - - - - - - - 21.4 - 0.0
13/03:00pm WSW 9 15 - - - - - - - 21.3 - 0.0
13/02:30pm WSW 9 14 - - - - - - - 21.4 - 0.0
13/02:00pm WSW 6 10 - - - - - - - 21.2 - 0.0
13/01:30pm SW 7 12 - - - - - - - 21.1 - 0.0
13/01:00pm SSW 9 15 - - - - - - - 20.4 - 0.0
13/12:30pm SW 10 15 - - - - - - - 20.2 - 0.0
13/12:00pm SW 8 14 - - - - - - - 20.3 - 0.0
13/11:30am SSW 9 14 - - - - - - - 19.6 - 0.0
13/11:00am SW 6 11 - - - - - - - 19.6 - 0.0
13/10:30am W 7 13 - - - - - - - 19.8 - 0.0
13/10:00am W 8 13 - - - - - - - 19.0 - 0.0
13/09:30am W 8 11 - - - - - - - 18.1 - 0.0
13/09:00am WNW 9 14 - - - - - - - 17.3 - 0.0
13/08:30am N 3 4 - - - - - - - 16.4 - 0.0
13/08:00am N 3 5 - - - - - - - 15.2 - 0.0
13/07:30am CALM 0 2 - - - - - - - 13.6 - 0.0
13/07:00am ENE 1 2 - - - - - - - 12.2 - 0.0
13/06:30am S 2 4 - - - - - - - 11.8 - 0.0
13/06:00am W 5 6 - - - - - - - 12.4 - 0.0
13/05:30am W 3 5 - - - - - - - 12.2 - 0.0
13/05:00am SW 3 5 - - - - - - - 12.3 - 0.0
13/04:30am WSW 3 5 - - - - - - - 11.8 - 0.0
13/04:00am SSW 1 2 - - - - - - - 12.1 - 0.0
13/03:30am NNW 5 6 - - - - - - - 12.4 - 0.0
13/03:00am N 3 4 - - - - - - - 12.2 - 0.0
13/02:30am WSW 4 7 - - - - - - - 12.1 - 0.0
13/02:00am NW 6 10 - - - - - - - 12.4 - 0.0
13/01:30am NNW 4 6 - - - - - - - 12.6 - 0.0
13/01:00am NW 5 6 - - - - - - - 12.4 - 0.0
13/12:30am N 4 5 - - - - - - - 11.9 - 0.0
13/12:00am NNW 3 4 - - - - - - - 12.2 - 0.0
 
Date/Time
EST
Wind Sea
Height
m
Swell Vis
km
Cloud Weather Temp
°C
Press
hPa
Rain since
9am
mm
Dir  Spd
kts
Gust
kts
Height
m
Period
s
Dir
12/11:30pm WSW 4 5 - - - - - - - 12.5 - 0.0
12/11:00pm CALM 0 0 - - - - - - - 13.1 - 0.0
12/10:30pm WNW 5 7 - - - - - - - 13.8 - 0.0
12/10:00pm NW 6 11 - - - - - - - 13.6 - 0.0
12/09:30pm W 4 5 - - - - - - - 13.6 - 0.0
12/09:00pm WNW 3 4 - - - - - - - 12.8 - 0.0
12/08:30pm WNW 2 4 - - - - - - - 13.3 - 0.0
12/08:00pm NNW 3 6 - - - - - - - 14.1 - 0.0
12/07:30pm WNW 5 6 - - - - - - - 14.6 - 0.0
12/07:00pm WNW 3 4 - - - - - - - 15.0 - 0.0
12/06:30pm N 3 5 - - - - - - - 15.4 - 0.0
12/06:00pm NW 1 3 - - - - - - - 15.7 - 0.0
12/05:30pm NNW 3 4 - - - - - - - 16.0 - 0.0
12/05:00pm N 3 5 - - - - - - - 16.3 - 0.0
12/04:30pm N 4 6 - - - - - - - 16.7 - 0.0
12/04:00pm N 4 6 - - - - - - - 16.6 - 0.0
12/03:30pm N 3 5 - - - - - - - 16.9 - 0.0
12/03:00pm N 4 6 - - - - - - - 16.8 - 0.0
12/02:30pm N 3 7 - - - - - - - 16.1 - 0.0
12/02:00pm N 4 7 - - - - - - - 16.1 - 0.0
12/01:30pm NNE 6 8 - - - - - - - 15.9 - 0.0
12/01:00pm NNE 5 6 - - - - - - - 16.9 - 0.0
12/12:30pm NNE 4 5 - - - - - - - 16.3 - 0.0
12/12:00pm NNE 4 5 - - - - - - - 16.8 - 0.0
12/11:30am N 5 7 - - - - - - - 17.3 - 0.0
12/11:00am NNE 6 8 - - - - - - - 16.9 - 0.0
12/10:30am N 5 9 - - - - - - - 16.3 - 0.0
12/10:00am N 6 9 - - - - - - - 15.6 - 0.0
12/09:30am N 2 3 - - - - - - - 15.2 - 0.0
12/09:00am NW 4 6 - - - - - - - 14.6 - 0.2
12/08:30am NW 6 9 - - - - - - - 14.1 - 0.2
12/08:00am NW 6 9 - - - - - - - 14.0 - 0.2
12/07:30am NW 7 10 - - - - - - - 13.6 - 0.2
12/07:00am NW 9 13 - - - - - - - 13.2 - 0.2
12/06:30am WNW 5 7 - - - - - - - 12.8 - 0.2
12/06:00am WNW 5 7 - - - - - - - 12.8 - 0.2
12/05:30am NW 6 9 - - - - - - - 12.7 - 0.2
12/05:00am NW 4 7 - - - - - - - 12.1 - 0.2
12/04:30am WNW 4 7 - - - - - - - 12.1 - 0.2
12/04:00am NW 5 6 - - - - - - - 12.0 - 0.2
12/03:30am WNW 5 7 - - - - - - - 12.1 - 0.2
12/03:00am NW 6 9 - - - - - - - 12.4 - 0.2
12/02:30am NW 6 8 - - - - - - - 12.1 - 0.2
12/02:00am WNW 4 6 - - - - - - - 12.0 - 0.2
12/01:30am NW 5 8 - - - - - - - 12.3 - 0.2
12/01:00am NW 5 7 - - - - - - - 12.2 - 0.2
12/12:30am WNW 6 8 - - - - - - - 12.0 - 0.2
12/12:00am WNW 7 9 - - - - - - - 12.0 - 0.2
 
Date/Time
EST
Wind Sea
Height
m
Swell Vis
km
Cloud Weather Temp
°C
Press
hPa
Rain since
9am
mm
Dir  Spd
kts
Gust
kts
Height
m
Period
s
Dir
11/11:30pm WNW 7 9 - - - - - - - 11.9 - 0.2
11/11:00pm WNW 6 7 - - - - - - - 11.5 - 0.2
11/10:30pm WNW 5 7 - - - - - - - 11.7 - 0.2
11/10:00pm WNW 3 5 - - - - - - - 11.6 - 0.2
11/09:30pm WNW 6 8 - - - - - - - 12.0 - 0.2
11/09:00pm W 7 8 - - - - - - - 11.3 - 0.2
11/08:30pm W 5 7 - - - - - - - 11.3 - 0.2
11/08:00pm W 4 6 - - - - - - - 11.1 - 0.2
11/07:30pm W 5 7 - - - - - - - 11.1 - 0.2
11/07:00pm WNW 3 4 - - - - - - - 11.5 - 0.2
11/06:30pm WNW 3 4 - - - - - - - 12.1 - 0.2
11/06:00pm N 8 11 - - - - - - - 14.2 - 0.2
11/05:30pm N 8 11 - - - - - - - 14.2 - 0.2
11/05:00pm NNE 9 13 - - - - - - - 14.5 - 0.2
11/04:30pm NNE 7 10 - - - - - - - 14.9 - 0.2
11/04:00pm NNE 6 8 - - - - - - - 15.4 - 0.2
11/03:30pm NNE 7 9 - - - - - - - 16.0 - 0.2
11/03:00pm NNE 7 9 - - - - - - Recent precip. 16.1 - 0.2
11/02:30pm NNE 7 8 - - - - - - - 16.0 - 0.2
11/02:00pm NNE 6 8 - - - - - - - 16.6 - 0.0
11/01:30pm NNE 6 7 - - - - - - - 16.2 - 0.0
11/01:00pm NNE 6 7 - - - - - - - 15.6 - 0.0
11/12:30pm NNE 5 8 - - - - - - - 16.4 - 0.0
11/12:00pm NNE 5 7 - - - - - - - 15.4 - 0.0
11/11:30am NNE 3 6 - - - - - - - 16.0 - 0.0
11/11:00am NNE 3 5 - - - - - - - 15.6 - 0.0

Other formats

Comma delimited format used in spreadsheet applications
http://www.bom.gov.au/fwo/IDN60701/IDN60701.95749.axf

JavaScript Object Notation format (JSON) in row-major order
http://www.bom.gov.au/fwo/IDN60701/IDN60701.95749.json

Data quality

Most of these data are generated automatically and are frequently updated. Quality checks on data are not normally performed. It is possible for incorrect values to appear. Refer to information at About Latest Weather Observations and please check the disclaimer before using these data.